Time;durP1;ratioP1;P1;durP2;ratioP2;P2;SDS_P1;SDS_P2;PMS_P1;PMS_P2;Temp;Humidity;BMP_temperature;BMP_pressure;BME280_temperature;BME280_humidity;BME280_pressure;Samples;Min_cycle;Max_cycle;Signal;HPM_P1;HPM_P2
2023/10/19 00:01:58;;;;;;;6.95;3.40;;;;;;;13.47;65.06;99225.81;5097011;28;20135;-62
2023/10/19 00:04:26;;;;;;;5.35;3.15;;;;;;;13.47;65.36;99207.72;5090248;28;20047;-62
2023/10/19 00:06:54;;;;;;;6.43;2.90;;;;;;;13.48;64.85;99213.94;5090564;28;20059;-62
2023/10/19 00:09:22;;;;;;;4.70;3.00;;;;;;;13.48;65.05;99216.63;5093626;28;20066;-62
2023/10/19 00:11:51;;;;;;;8.43;3.33;;;;;;;13.49;65.03;99219.06;5091943;28;20060;-62
2023/10/19 00:14:20;;;;;;;4.50;3.08;;;;;;;13.51;65.46;99233.06;5090307;28;20072;-62
2023/10/19 00:16:50;;;;;;;5.20;2.85;;;;;;;13.51;65.08;99233.06;5094662;28;20078;-63
2023/10/19 00:19:20;;;;;;;5.22;2.92;;;;;;;13.50;65.35;99228.75;5092693;28;20051;-63
2023/10/19 00:21:50;;;;;;;6.50;2.97;;;;;;;13.52;65.52;99220.38;5090454;28;20041;-62
2023/10/19 00:24:22;;;;;;;5.43;3.00;;;;;;;13.51;64.93;99226.88;5093008;28;20048;-62
2023/10/19 00:26:52;;;;;;;4.45;2.92;;;;;;;13.50;64.97;99212.56;5092328;28;20115;-63
2023/10/19 00:29:32;;;;;;;4.80;2.78;;;;;;;13.50;65.29;99206.38;5095197;28;20052;-62
2023/10/19 00:32:00;;;;;;;5.78;2.95;;;;;;;13.48;65.27;99212.03;5095758;28;20078;-62
2023/10/19 00:34:29;;;;;;;5.00;2.72;;;;;;;13.51;65.47;99216.06;5091725;28;20049;-62
2023/10/19 00:37:01;;;;;;;3.28;2.58;;;;;;;13.53;65.40;99214.72;5093178;28;20076;-62
2023/10/19 00:39:40;;;;;;;4.65;2.63;;;;;;;13.52;65.21;99217.69;5096090;28;20044;-64
2023/10/19 00:42:08;;;;;;;4.57;2.97;;;;;;;13.52;65.18;99218.50;5094845;28;20052;-63
2023/10/19 00:44:41;;;;;;;5.90;2.80;;;;;;;13.52;65.66;99215.00;5091452;28;20040;-63
2023/10/19 00:47:13;;;;;;;6.03;3.17;;;;;;;13.49;65.12;99221.75;5081741;28;20044;-64
2023/10/19 00:49:44;;;;;;;7.05;3.45;;;;;;;13.44;65.50;99196.69;5082474;28;20076;-63
2023/10/19 00:52:12;;;;;;;4.15;2.60;;;;;;;13.49;65.59;99207.44;5081585;28;20154;-63
2023/10/19 00:54:51;;;;;;;4.70;3.22;;;;;;;13.53;65.73;99203.91;5078293;28;20474;-63
2023/10/19 00:57:22;;;;;;;3.97;2.40;;;;;;;13.51;65.60;99203.38;5080268;28;20136;-63
2023/10/19 00:59:53;;;;;;;4.40;2.50;;;;;;;13.52;65.67;99205.00;5081496;28;20114;-63
2023/10/19 01:02:28;;;;;;;4.55;2.55;;;;;;;13.52;65.76;99205.00;5077365;28;20060;-63
2023/10/19 01:04:59;;;;;;;4.55;2.60;;;;;;;13.50;66.07;99198.28;5079640;28;20098;-63
2023/10/19 01:07:29;;;;;;;3.97;2.47;;;;;;;13.52;65.82;99199.59;5075045;28;20059;-63
2023/10/19 01:10:00;;;;;;;4.35;2.33;;;;;;;13.53;65.75;99200.41;5082987;28;20053;-64
2023/10/19 01:12:38;;;;;;;4.13;2.83;;;;;;;13.52;65.93;99205.00;5074191;28;20091;-63
2023/10/19 01:15:12;;;;;;;3.75;2.28;;;;;;;13.53;65.81;99206.63;5079983;28;20228;-63
2023/10/19 01:17:43;;;;;;;3.13;2.13;;;;;;;13.54;65.97;99208.22;5078432;28;20044;-63
2023/10/19 01:20:18;;;;;;;5.47;2.55;;;;;;;13.49;66.00;99202.88;5078951;28;20134;-63
2023/10/19 01:22:53;;;;;;;4.85;2.70;;;;;;;13.53;65.89;99203.91;5078095;28;20394;-63
2023/10/19 01:25:32;;;;;;;6.25;2.90;;;;;;;13.51;66.14;99197.19;5077788;28;20132;-63
2023/10/19 01:28:08;;;;;;;3.55;2.20;;;;;;;13.41;66.06;99183.75;5081948;28;20421;-63
2023/10/19 01:30:36;;;;;;;3.80;2.38;;;;;;;13.54;66.11;99210.91;5077501;28;20107;-63
2023/10/19 01:33:12;;;;;;;3.55;2.38;;;;;;;13.55;65.85;99203.63;5081098;28;20064;-63
2023/10/19 01:38:25;;;;;;;4.35;2.10;;;;;;;13.55;66.07;99204.44;5081490;28;20070;-63
2023/10/19 01:40:53;;;;;;;4.10;2.22;;;;;;;13.53;66.02;99198.50;5080690;28;20123;-63
2023/10/19 01:43:25;;;;;;;3.15;2.13;;;;;;;13.55;66.11;99201.75;5077177;28;20041;-63
2023/10/19 01:45:55;;;;;;;5.10;2.20;;;;;;;13.57;66.02;99198.75;5078169;28;20189;-63
2023/10/19 01:48:33;;;;;;;5.03;2.83;;;;;;;13.56;65.94;99192.56;5079666;28;20094;-63
2023/10/19 01:51:04;;;;;;;5.82;2.35;;;;;;;13.58;66.51;99194.97;5086098;28;20048;-63
2023/10/19 01:53:34;;;;;;;4.30;2.17;;;;;;;13.58;67.01;99201.16;5076332;28;20052;-63
2023/10/19 01:56:05;;;;;;;3.08;2.10;;;;;;;13.60;67.12;99198.19;5078981;28;20402;-63
2023/10/19 01:58:36;;;;;;;3.53;1.92;;;;;;;13.60;67.17;99198.19;5081091;28;20075;-62
2023/10/19 02:01:08;;;;;;;3.25;2.10;;;;;;;13.59;67.41;99197.38;5080471;28;20165;-62
2023/10/19 02:03:36;;;;;;;2.08;1.73;;;;;;;13.61;67.16;99192.50;5081010;28;20052;-63
2023/10/19 02:06:10;;;;;;;3.78;1.65;;;;;;;13.62;67.68;99194.13;5080561;28;20144;-62
2023/10/19 02:08:39;;;;;;;4.38;1.73;;;;;;;13.62;67.49;99188.72;5082159;28;20048;-62
2023/10/19 02:11:16;;;;;;;6.40;1.85;;;;;;;13.63;67.54;99187.63;5082212;28;20045;-62
2023/10/19 02:13:46;;;;;;;2.97;1.52;;;;;;;13.66;67.73;99192.47;5075772;28;20121;-62
2023/10/19 02:16:15;;;;;;;3.08;1.50;;;;;;;13.67;67.76;99185.19;5079573;28;20047;-63
2023/10/19 02:18:44;;;;;;;3.47;1.67;;;;;;;13.67;67.16;99191.38;5079780;28;20048;-62
2023/10/19 02:21:13;;;;;;;3.10;1.63;;;;;;;13.67;67.49;99191.38;5071505;28;20048;-62
2023/10/19 02:23:41;;;;;;;4.07;1.80;;;;;;;13.69;67.15;99193.81;5078475;28;20052;-63
2023/10/19 02:26:12;;;;;;;2.22;1.27;;;;;;;13.68;67.17;99195.69;5078200;28;20584;-62
2023/10/19 02:28:39;;;;;;;2.00;1.40;;;;;;;13.70;66.99;99197.31;5079561;28;20052;-63
2023/10/19 02:31:18;;;;;;;4.30;1.90;;;;;;;13.70;66.48;99189.22;5079053;28;20059;-62
2023/10/19 02:33:46;;;;;;;2.42;1.35;;;;;;;13.71;66.37;99185.41;5074795;28;20051;-62
2023/10/19 02:36:15;;;;;;;3.63;1.70;;;;;;;13.70;66.86;99195.41;5079934;28;20060;-63
2023/10/19 02:38:48;;;;;;;3.30;1.63;;;;;;;13.71;66.51;99185.41;5082358;28;20183;-62
2023/10/19 02:41:17;;;;;;;3.72;1.75;;;;;;;13.71;66.35;99180.81;5080232;28;20085;-63
2023/10/19 02:43:47;;;;;;;3.58;1.40;;;;;;;13.73;66.45;99177.84;5078800;28;20421;-62
2023/10/19 02:46:17;;;;;;;2.45;1.52;;;;;;;13.72;66.72;99173.53;5075530;28;20052;-62
2023/10/19 02:48:44;;;;;;;1.83;1.30;;;;;;;13.73;66.27;99172.44;5080443;28;20082;-64
2023/10/19 02:51:12;;;;;;;2.72;2.03;;;;;;;13.74;66.79;99171.34;5077229;28;20094;-63
2023/10/19 02:53:39;;;;;;;3.78;1.52;;;;;;;13.75;66.52;99170.25;5074842;28;20052;-62
2023/10/19 02:56:13;;;;;;;1.63;0.98;;;;;;;13.75;66.72;99168.38;5080381;28;20049;-62
2023/10/19 02:58:42;;;;;;;1.63;1.17;;;;;;;13.76;66.22;99166.47;5079338;28;20060;-63
2023/10/19 03:01:17;;;;;;;3.03;1.38;;;;;;;13.76;66.52;99163.78;5077832;28;20079;-63
2023/10/19 03:03:44;;;;;;;2.70;1.60;;;;;;;13.75;66.87;99167.56;5080562;28;20567;-63
2023/10/19 03:06:11;;;;;;;3.70;1.45;;;;;;;13.76;66.58;99166.47;5078517;28;20049;-63
2023/10/19 03:08:38;;;;;;;2.47;1.52;;;;;;;13.75;66.82;99162.97;5082063;28;20044;-63
2023/10/19 03:11:07;;;;;;;1.88;1.35;;;;;;;13.75;66.43;99160.28;5080766;28;20044;-64
2023/10/19 03:13:35;;;;;;;2.83;1.35;;;;;;;13.76;66.88;99164.59;5076914;28;20044;-63
2023/10/19 03:16:07;;;;;;;2.40;1.10;;;;;;;13.78;66.53;99156.19;5079959;28;20112;-63
2023/10/19 03:18:34;;;;;;;2.65;1.17;;;;;;;13.77;66.56;99154.59;5076884;28;20121;-63
2023/10/19 03:21:03;;;;;;;2.42;1.45;;;;;;;13.79;66.66;99152.41;5070351;28;20055;-63
2023/10/19 03:23:34;;;;;;;2.97;2.22;;;;;;;13.78;66.77;99148.09;5083029;28;20055;-63
2023/10/19 03:28:49;;;;;;;2.28;1.23;;;;;;;13.79;67.07;99144.31;5076313;28;20052;-63
2023/10/19 03:31:18;;;;;;;3.92;1.17;;;;;;;13.80;67.24;99143.22;5079154;28;20048;-64
2023/10/19 03:33:50;;;;;;;1.98;1.10;;;;;;;13.79;66.93;99138.91;5076321;28;20040;-63
2023/10/19 03:36:18;;;;;;;1.55;1.02;;;;;;;13.79;66.79;99131.63;5074264;28;20044;-64
2023/10/19 03:38:46;;;;;;;2.20;1.27;;;;;;;13.80;67.02;99135.13;5076183;28;20049;-63
2023/10/19 03:41:14;;;;;;;2.40;1.48;;;;;;;13.80;67.19;99129.72;5079324;28;20385;-63
2023/10/19 03:43:42;;;;;;;2.70;1.30;;;;;;;13.81;66.84;99131.31;5072717;28;20044;-64
2023/10/19 03:46:22;;;;;;;1.88;1.10;;;;;;;13.81;67.07;99139.44;5076681;28;20079;-63
2023/10/19 03:48:50;;;;;;;3.65;1.63;;;;;;;13.81;67.32;99136.72;5077222;28;20056;-63
2023/10/19 03:51:18;;;;;;;1.60;1.02;;;;;;;13.81;67.06;99126.72;5073646;28;20451;-63
2023/10/19 03:53:53;;;;;;;3.45;1.15;;;;;;;13.80;67.19;99133.22;5076596;28;20063;-63
2023/10/19 03:56:22;;;;;;;4.05;1.30;;;;;;;13.82;67.07;99132.94;5076613;28;20049;-62
2023/10/19 03:58:51;;;;;;;1.25;0.80;;;;;;;13.82;67.06;99127.53;5077008;28;20559;-62
2023/10/19 04:01:21;;;;;;;1.67;0.95;;;;;;;13.83;67.54;99126.44;5076408;28;20055;-63
2023/10/19 04:03:51;;;;;;;2.95;1.25;;;;;;;13.82;67.04;99131.03;5079975;28;20090;-63
2023/10/19 04:06:20;;;;;;;1.58;0.80;;;;;;;13.83;67.29;99126.44;5076146;28;20239;-62
2023/10/19 04:08:50;;;;;;;3.28;1.00;;;;;;;13.84;67.15;99119.97;5076521;28;20129;-62
2023/10/19 04:11:32;;;;;;;1.30;0.93;;;;;;;13.83;67.63;99126.44;5077892;28;20076;-63
2023/10/19 04:14:03;;;;;;;1.98;1.10;;;;;;;13.84;67.47;99128.06;5074855;28;20044;-62
2023/10/19 04:16:37;;;;;;;5.53;1.05;;;;;;;13.82;67.57;99128.34;5076758;28;20068;-62
2023/10/19 04:19:05;;;;;;;1.83;1.10;;;;;;;13.83;67.83;99131.84;5074631;28;20107;-64
2023/10/19 04:21:33;;;;;;;2.35;1.10;;;;;;;13.83;68.02;99129.16;5078126;28;20051;-64
2023/10/19 04:24:01;;;;;;;2.60;1.08;;;;;;;13.83;67.81;99131.84;5079599;28;20041;-63
2023/10/19 04:26:30;;;;;;;2.33;1.10;;;;;;;13.83;67.69;99124.56;5081583;28;20056;-63
2023/10/19 04:28:58;;;;;;;3.65;1.08;;;;;;;13.84;67.14;99131.56;5080501;28;20055;-64
2023/10/19 04:31:26;;;;;;;2.20;1.00;;;;;;;13.83;67.31;99129.16;5084605;28;20044;-63
2023/10/19 04:33:55;;;;;;;1.73;0.82;;;;;;;13.85;67.68;99130.47;5074448;28;20072;-64
2023/10/19 04:36:23;;;;;;;3.28;1.13;;;;;;;13.85;67.68;99132.38;5078528;28;20126;-64
2023/10/19 04:38:52;;;;;;;1.20;1.05;;;;;;;13.84;67.21;99130.75;5080801;28;20114;-63
2023/10/19 04:41:20;;;;;;;3.15;1.52;;;;;;;13.84;67.43;99133.47;5081956;28;20110;-64
2023/10/19 04:43:50;;;;;;;2.33;1.15;;;;;;;13.82;67.42;99122.94;5078993;28;20052;-64
2023/10/19 04:46:19;;;;;;;2.70;1.15;;;;;;;13.86;67.53;99137.47;5080084;28;20309;-63
2023/10/19 04:48:49;;;;;;;1.73;1.13;;;;;;;13.84;67.29;99141.56;5080965;28;20112;-64
2023/10/19 04:51:18;;;;;;;1.67;0.90;;;;;;;13.84;67.53;99142.38;5078193;28;20048;-63
2023/10/19 04:53:46;;;;;;;2.92;0.98;;;;;;;13.85;67.48;99140.47;5080518;28;20053;-63
2023/10/19 04:56:14;;;;;;;0.82;0.70;;;;;;;13.85;67.24;99146.69;5081890;28;20090;-63
2023/10/19 04:58:42;;;;;;;2.60;1.00;;;;;;;13.86;67.08;99144.78;5082004;28;20612;-64
2023/10/19 05:01:11;;;;;;;3.72;1.40;;;;;;;13.86;67.12;99145.59;5080582;28;20054;-63
2023/10/19 05:03:39;;;;;;;1.73;0.63;;;;;;;13.86;67.20;99145.59;5078346;28;20040;-63
2023/10/19 05:06:09;;;;;;;5.68;0.90;;;;;;;13.86;67.15;99142.88;5083338;28;20055;-63
2023/10/19 05:08:38;;;;;;;3.70;1.10;;;;;;;13.87;67.48;99135.56;5078886;28;20048;-64
2023/10/19 05:11:06;;;;;;;3.00;1.00;;;;;;;13.87;67.34;99149.88;5078102;28;20406;-64
2023/10/19 05:13:34;;;;;;;3.17;1.00;;;;;;;13.87;67.48;99157.16;5080728;28;20100;-64
2023/10/19 05:16:02;;;;;;;2.90;0.95;;;;;;;13.87;67.20;99151.75;5081828;28;20048;-64
2023/10/19 05:18:30;;;;;;;1.85;0.82;;;;;;;13.87;67.16;99151.75;5079925;28;20068;-64
2023/10/19 05:20:58;;;;;;;4.07;0.98;;;;;;;13.86;67.43;99158.28;5075245;28;20071;-63
2023/10/19 05:23:28;;;;;;;1.85;0.88;;;;;;;13.87;67.29;99151.75;5073814;28;20067;-64
2023/10/19 05:26:04;;;;;;;2.67;0.90;;;;;;;13.85;67.17;99145.88;5079287;28;20059;-64
2023/10/19 05:28:32;;;;;;;3.35;0.90;;;;;;;13.86;67.06;99148.28;5082142;28;20067;-64
2023/10/19 05:31:00;;;;;;;2.80;1.23;;;;;;;13.83;67.26;99146.16;5077533;28;20076;-63
2023/10/19 05:33:29;;;;;;;2.38;1.10;;;;;;;13.86;67.35;99151.00;5080662;28;20397;-64
2023/10/19 05:35:57;;;;;;;2.40;0.93;;;;;;;13.88;67.79;99150.66;5079213;28;20323;-64
2023/10/19 05:38:27;;;;;;;2.17;1.13;;;;;;;13.87;67.49;99151.75;5076647;28;20041;-64
2023/10/19 05:40:55;;;;;;;2.17;0.95;;;;;;;13.87;67.66;99154.47;5083152;28;20048;-63
2023/10/19 05:43:25;;;;;;;2.40;1.10;;;;;;;13.86;67.70;99155.59;5077183;28;20044;-64
2023/10/19 05:45:53;;;;;;;2.65;1.08;;;;;;;13.87;67.75;99151.75;5081368;28;20135;-64
2023/10/19 05:48:21;;;;;;;1.98;0.90;;;;;;;13.88;67.59;99158.78;5082151;28;20056;-64
2023/10/19 05:50:49;;;;;;;1.98;0.88;;;;;;;13.87;67.44;99159.88;5079426;28;20071;-64
2023/10/19 05:53:18;;;;;;;3.53;1.23;;;;;;;13.86;67.57;99158.28;5077808;28;20055;-64
2023/10/19 05:55:47;;;;;;;2.67;0.95;;;;;;;13.87;67.49;99163.38;5079493;28;20045;-64
2023/10/19 05:58:14;;;;;;;3.45;1.38;;;;;;;13.87;67.61;99167.97;5076895;28;20103;-65
2023/10/19 06:00:44;;;;;;;2.80;0.88;;;;;;;13.88;67.45;99173.09;5080628;28;20048;-64
2023/10/19 06:03:11;;;;;;;4.50;0.82;;;;;;;13.87;67.73;99166.06;5079087;28;20049;-65
2023/10/19 06:05:39;;;;;;;3.50;0.88;;;;;;;13.88;67.84;99169.56;5081178;28;20048;-65
2023/10/19 06:08:08;;;;;;;3.45;0.90;;;;;;;13.88;67.28;99169.56;5080205;28;20040;-64
2023/10/19 06:10:39;;;;;;;1.70;0.85;;;;;;;13.89;67.38;99165.78;5077212;28;20055;-63
2023/10/19 06:13:09;;;;;;;3.78;0.90;;;;;;;13.87;67.33;99174.16;5076453;28;20048;-64
2023/10/19 06:15:38;;;;;;;2.00;0.90;;;;;;;13.88;67.51;99166.88;5075530;28;20049;-67
2023/10/19 06:18:07;;;;;;;2.75;1.50;;;;;;;13.88;67.50;99164.97;5068788;28;20052;-63
2023/10/19 06:20:35;;;;;;;3.83;1.00;;;;;;;13.89;68.02;99168.47;5078095;28;20045;-63
2023/10/19 06:23:05;;;;;;;4.15;1.45;;;;;;;13.88;67.59;99172.28;5081350;28;20502;-62
2023/10/19 06:25:35;;;;;;;3.47;1.30;;;;;;;13.88;67.78;99169.56;5081481;28;20074;-61
2023/10/19 06:28:03;;;;;;;2.92;1.20;;;;;;;13.82;67.47;99162.66;4367760;28;10000830;-62
2023/10/19 06:30:32;;;;;;;5.72;1.40;;;;;;;13.88;67.74;99172.28;5074159;28;20121;-63
2023/10/19 06:33:01;;;;;;;2.38;1.40;;;;;;;13.89;67.75;99185.50;5071480;28;20481;-62
2023/10/19 06:35:33;;;;;;;3.97;1.35;;;;;;;13.90;68.10;99181.69;5068501;28;20060;-62
2023/10/19 06:38:03;;;;;;;3.25;1.90;;;;;;;13.90;67.79;99180.91;5077500;28;20044;-62
2023/10/19 06:40:32;;;;;;;3.88;1.27;;;;;;;13.90;67.90;99176.31;5073193;28;20467;-62
2023/10/19 06:43:02;;;;;;;3.45;1.13;;;;;;;13.89;67.99;99177.41;5076725;28;20502;-62
2023/10/19 06:45:30;;;;;;;5.45;1.40;;;;;;;13.91;67.77;99190.63;5084184;28;20065;-61
2023/10/19 06:48:00;;;;;;;7.25;1.42;;;;;;;13.88;68.23;99178.47;5075499;28;20049;-65
2023/10/19 06:50:28;;;;;;;4.80;1.20;;;;;;;13.93;67.96;99191.13;5082061;28;20044;-64
2023/10/19 06:52:57;;;;;;;3.47;1.50;;;;;;;13.92;67.89;99178.72;5068682;28;20053;-66
2023/10/19 06:55:25;;;;;;;4.70;1.27;;;;;;;13.95;68.16;99191.66;5079109;28;20083;-64
2023/10/19 06:57:55;;;;;;;3.58;1.20;;;;;;;13.96;68.13;99195.97;5077662;28;20116;-62
2023/10/19 07:00:26;;;;;;;3.88;2.00;;;;;;;13.98;67.78;99191.09;5078679;28;20448;-62
2023/10/19 07:02:56;;;;;;;5.90;1.73;;;;;;;13.95;68.29;99203.25;5077198;28;20418;-65
2023/10/19 07:05:25;;;;;;;3.50;1.40;;;;;;;13.97;68.09;99203.78;5082139;28;20048;-62
2023/10/19 07:07:54;;;;;;;4.95;1.40;;;;;;;13.98;68.25;99208.09;5087531;28;20544;-62
2023/10/19 07:10:25;;;;;;;5.10;1.60;;;;;;;13.97;68.59;99190.28;5088086;28;20080;-62
2023/10/19 07:12:54;;;;;;;3.22;1.33;;;;;;;14.04;68.45;99205.34;5075448;28;20045;-62
2023/10/19 07:15:23;;;;;;;7.10;1.70;;;;;;;14.04;68.98;99202.66;5078640;28;20045;-62
2023/10/19 07:17:53;;;;;;;4.47;1.63;;;;;;;14.04;69.25;99200.75;5086192;28;20375;-60
2023/10/19 07:20:31;;;;;;;2.92;1.30;;;;;;;14.05;68.88;99196.16;5076985;28;20066;-63
2023/10/19 07:23:03;;;;;;;5.82;1.65;;;;;;;14.08;68.98;99201.00;5077069;28;20096;-61
2023/10/19 07:25:42;;;;;;;5.45;1.27;;;;;;;14.06;69.13;99203.16;5081151;28;20044;-63
2023/10/19 07:28:12;;;;;;;3.33;1.33;;;;;;;14.07;69.27;99197.47;5078406;28;20102;-63
2023/10/19 07:30:41;;;;;;;7.60;1.50;;;;;;;14.11;69.52;99206.63;5079041;28;20044;-63
2023/10/19 07:33:09;;;;;;;5.07;1.45;;;;;;;14.09;68.72;99198.00;5082621;28;20139;-63
2023/10/19 07:35:38;;;;;;;2.65;1.00;;;;;;;14.10;69.75;99196.91;5076354;28;20079;-64
2023/10/19 07:38:07;;;;;;;4.20;1.15;;;;;;;14.12;69.96;99192.03;5079966;28;20127;-61
2023/10/19 07:40:36;;;;;;;5.47;1.58;;;;;;;14.15;69.47;99190.66;5081156;28;20044;-65
2023/10/19 07:43:04;;;;;;;5.60;1.92;;;;;;;14.15;69.00;99188.75;5081005;28;20064;-63
2023/10/19 07:45:34;;;;;;;6.53;1.80;;;;;;;14.19;69.78;99195.19;5077538;28;20102;-64
2023/10/19 07:48:06;;;;;;;5.70;1.50;;;;;;;14.19;69.21;99192.50;5079169;28;20248;-64
2023/10/19 07:50:35;;;;;;;6.43;2.05;;;;;;;14.18;69.47;99181.97;5077771;28;20129;-64
2023/10/19 07:53:03;;;;;;;4.15;1.33;;;;;;;14.18;69.25;99193.59;5082893;28;20053;-64
2023/10/19 07:55:32;;;;;;;4.55;2.10;;;;;;;14.15;69.55;99186.06;5084035;28;20045;-64
2023/10/19 07:58:03;;;;;;;5.00;1.73;;;;;;;14.18;69.59;99188.19;5083304;28;20051;-67
2023/10/19 08:00:33;;;;;;;9.48;1.70;;;;;;;14.18;69.48;99199.00;5085779;28;20059;-63
2023/10/19 08:03:01;;;;;;;8.43;2.05;;;;;;;14.22;69.64;99185.72;5083740;28;20044;-63
2023/10/19 08:05:29;;;;;;;5.00;1.60;;;;;;;14.38;69.28;99180.94;5083079;28;20060;-62
2023/10/19 08:07:58;;;;;;;3.42;1.20;;;;;;;14.46;68.78;99177.66;5084139;28;20389;-63
2023/10/19 08:10:27;;;;;;;7.50;2.22;;;;;;;14.61;68.69;99180.16;5083075;28;20048;-65
2023/10/19 08:12:55;;;;;;;6.68;1.65;;;;;;;14.74;68.21;99171.34;5086787;28;20095;-66
2023/10/19 08:15:26;;;;;;;6.55;2.03;;;;;;;14.90;67.81;99171.97;5082737;28;20082;-65
2023/10/19 08:17:54;;;;;;;6.78;2.08;;;;;;;15.04;67.58;99166.63;5085067;28;20049;-64
2023/10/19 08:20:30;;;;;;;10.18;1.80;;;;;;;15.08;67.57;99168.47;5084880;28;20474;-64
2023/10/19 08:23:01;;;;;;;4.95;1.60;;;;;;;15.14;67.48;99161.06;5083807;28;20041;-64
2023/10/19 08:25:29;;;;;;;6.43;1.80;;;;;;;15.33;67.23;99164.59;5085595;28;20481;-65
2023/10/19 08:28:01;;;;;;;9.07;2.08;;;;;;;15.49;66.44;99160.53;5087349;28;20053;-66
2023/10/19 08:30:30;;;;;;;7.85;1.70;;;;;;;15.69;66.19;99162.09;5084137;28;20052;-64
2023/10/19 08:32:58;;;;;;;5.13;1.80;;;;;;;15.85;65.26;99152.63;5085103;28;20045;-64
2023/10/19 08:35:27;;;;;;;5.50;1.45;;;;;;;16.00;65.09;99161.56;5083082;28;20044;-64
2023/10/19 08:37:57;;;;;;;6.32;1.70;;;;;;;16.04;64.56;99154.47;5082760;28;20044;-64
2023/10/19 08:40:27;;;;;;;6.57;1.67;;;;;;;15.97;64.71;99152.13;5082398;28;20036;-65
2023/10/19 08:42:56;;;;;;;5.32;1.88;;;;;;;15.89;65.00;99155.53;5083497;28;20044;-65
2023/10/19 08:45:25;;;;;;;4.30;1.38;;;;;;;15.65;65.14;99139.44;5085882;28;20052;-64
2023/10/19 08:47:57;;;;;;;4.18;1.10;;;;;;;15.56;66.30;99160.97;5084438;28;20569;-65
2023/10/19 08:50:26;;;;;;;3.72;1.20;;;;;;;15.44;66.49;99157.09;5085097;28;20520;-64
2023/10/19 08:52:55;;;;;;;3.63;1.33;;;;;;;15.37;66.65;99153.97;5085720;28;20068;-63
2023/10/19 08:55:23;;;;;;;7.82;1.70;;;;;;;15.26;67.06;99156.84;5080720;28;20335;-64
2023/10/19 08:58:11;;;;;;;5.78;1.70;;;;;;;15.24;67.29;99159.03;5084591;28;20147;-64
2023/10/19 09:00:48;;;;;;;4.30;1.40;;;;;;;15.19;67.67;99155.59;5087038;28;20040;-65
2023/10/19 09:03:18;;;;;;;4.53;1.65;;;;;;;15.15;67.94;99151.88;5084068;28;20059;-65
2023/10/19 09:05:47;;;;;;;3.42;1.30;;;;;;;15.13;67.84;99148.66;5081491;28;20132;-65
2023/10/19 09:08:17;;;;;;;7.63;1.23;;;;;;;15.10;68.33;99146.53;5084242;28;20460;-66
2023/10/19 09:10:46;;;;;;;3.80;1.30;;;;;;;15.07;68.42;99144.41;5085061;28;20044;-65
2023/10/19 09:13:18;;;;;;;8.77;1.35;;;;;;;15.04;68.67;99137.69;5083638;28;20049;-64
2023/10/19 09:15:46;;;;;;;7.53;2.08;;;;;;;15.02;68.86;99129.06;5082342;28;20044;-65
2023/10/19 09:18:15;;;;;;;6.63;1.73;;;;;;;15.03;69.14;99129.84;5083780;28;20076;-65
2023/10/19 09:20:53;;;;;;;7.60;2.10;;;;;;;15.02;69.11;99126.34;5082132;28;20048;-66
2023/10/19 09:23:22;;;;;;;6.45;2.10;;;;;;;15.02;69.07;99120.94;5083964;28;20056;-65
2023/10/19 09:25:50;;;;;;;5.75;1.60;;;;;;;15.02;69.12;99120.94;5082350;28;20060;-65
2023/10/19 09:28:18;;;;;;;3.78;1.60;;;;;;;15.17;68.88;99123.41;5083285;28;20045;-64
2023/10/19 09:30:47;;;;;;;2.97;1.50;;;;;;;15.13;69.43;99130.50;5084484;28;20044;-64
2023/10/19 09:33:17;;;;;;;6.03;1.67;;;;;;;15.12;69.40;99130.81;5086504;28;20096;-65
2023/10/19 09:35:48;;;;;;;7.00;1.60;;;;;;;15.13;69.48;99132.41;5082815;28;20397;-65
2023/10/19 09:38:21;;;;;;;5.15;1.80;;;;;;;15.08;70.35;99127.88;5084698;28;20058;-62
2023/10/19 09:40:50;;;;;;;6.38;1.52;;;;;;;15.12;70.77;99125.38;5081096;28;20049;-63
2023/10/19 09:43:26;;;;;;;8.07;2.35;;;;;;;15.10;70.50;99120.28;5086400;28;20053;-63
2023/10/19 09:46:00;;;;;;;6.65;1.88;;;;;;;15.08;70.96;99117.06;5084977;28;20528;-63
2023/10/19 09:48:28;;;;;;;6.07;1.80;;;;;;;15.08;71.00;99125.16;5073868;28;20546;-63
2023/10/19 09:50:58;;;;;;;6.13;1.80;;;;;;;15.06;71.00;99115.75;5086042;28;20391;-63
2023/10/19 09:53:28;;;;;;;7.35;2.63;;;;;;;15.05;71.20;99108.72;5084954;28;20041;-62
2023/10/19 09:55:58;;;;;;;8.48;2.47;;;;;;;15.05;71.28;99119.53;5082428;28;20070;-63
2023/10/19 09:58:30;;;;;;;7.28;2.15;;;;;;;15.05;71.02;99117.66;5081601;28;20063;-63
2023/10/19 10:00:58;;;;;;;4.93;1.40;;;;;;;15.07;71.20;99111.94;5093171;28;20055;-63
2023/10/19 10:03:49;;;;;;;5.00;1.88;;;;;;;15.07;71.25;99110.03;5083858;28;20059;-63
2023/10/19 10:06:27;;;;;;;5.53;1.52;;;;;;;15.10;71.05;99112.16;5092043;28;20045;-63
2023/10/19 10:08:55;;;;;;;5.20;1.83;;;;;;;15.10;71.24;99111.34;5080030;28;20064;-62
2023/10/19 10:11:26;;;;;;;4.53;1.65;;;;;;;15.09;71.34;99112.44;5071678;28;20391;-63
2023/10/19 10:13:55;;;;;;;5.03;2.10;;;;;;;15.10;71.24;99111.34;5083055;28;20056;-63
2023/10/19 10:16:25;;;;;;;6.47;1.65;;;;;;;15.10;71.39;99109.44;5079147;28;20059;-63
2023/10/19 10:18:59;;;;;;;5.70;1.65;;;;;;;15.06;71.47;99107.63;5080063;28;20055;-63
2023/10/19 10:21:29;;;;;;;6.60;1.80;;;;;;;15.14;71.21;99123.19;5082248;28;20044;-65
2023/10/19 10:23:59;;;;;;;10.63;2.05;;;;;;;15.16;71.40;99124.50;5081922;28;20131;-63
2023/10/19 10:26:29;;;;;;;8.00;1.90;;;;;;;15.17;71.27;99125.31;5078876;28;20041;-63
2023/10/19 10:29:13;;;;;;;4.75;1.38;;;;;;;15.16;71.51;99119.09;5076820;28;20118;-63
2023/10/19 10:31:45;;;;;;;4.55;1.40;;;;;;;15.17;71.42;99106.38;5081026;28;20057;-63
2023/10/19 10:34:44;;;;;;;7.20;1.83;;;;;;;15.16;71.59;99110.19;5086005;28;20073;-63
2023/10/19 10:37:14;;;;;;;4.50;1.30;;;;;;;15.19;71.35;99120.41;5075775;28;20052;-63
2023/10/19 10:39:44;;;;;;;6.47;2.10;;;;;;;15.20;71.62;99125.53;5088297;28;20050;-63
2023/10/19 10:42:14;;;;;;;10.35;2.05;;;;;;;15.23;71.62;99127.66;5081068;28;20055;-63
2023/10/19 10:44:43;;;;;;;7.70;1.88;;;;;;;15.23;71.65;99129.56;5081045;28;20070;-63
2023/10/19 10:47:13;;;;;;;5.25;1.75;;;;;;;15.32;71.56;99127.78;5085169;28;20059;-63
2023/10/19 10:49:51;;;;;;;6.97;1.70;;;;;;;15.28;71.50;99132.97;5080117;28;20054;-64
2023/10/19 10:52:31;;;;;;;3.97;1.40;;;;;;;15.30;71.58;99136.19;5079819;28;20040;-64
2023/10/19 10:55:07;;;;;;;9.15;2.90;;;;;;;15.30;71.63;99125.38;5087414;28;20066;-63
2023/10/19 10:57:36;;;;;;;6.45;2.08;;;;;;;15.28;71.73;99118.66;5086842;28;20114;-64
2023/10/19 11:00:07;;;;;;;5.80;1.42;;;;;;;15.28;71.78;99111.31;5078507;28;20059;-63
2023/10/19 11:02:36;;;;;;;4.95;1.70;;;;;;;15.30;71.71;99117.25;5085070;28;20048;-63
2023/10/19 11:05:04;;;;;;;5.30;1.80;;;;;;;15.32;71.71;99121.56;5078209;28;20121;-64
2023/10/19 11:07:34;;;;;;;4.75;1.65;;;;;;;15.32;71.64;99102.63;5085851;28;20048;-63
2023/10/19 11:10:02;;;;;;;8.38;1.70;;;;;;;15.33;71.44;99101.53;5082183;28;20120;-63
2023/10/19 11:12:30;;;;;;;5.30;1.58;;;;;;;15.39;71.56;99093.03;5082929;28;20048;-63
2023/10/19 11:14:59;;;;;;;4.88;2.20;;;;;;;15.37;71.52;99081.69;5083820;28;20119;-63
2023/10/19 11:17:31;;;;;;;6.40;1.83;;;;;;;15.37;71.55;99078.19;5075356;28;20545;-65
2023/10/19 11:20:00;;;;;;;7.57;1.87;;;;;;;15.37;71.68;99065.44;4726001;28;10001297;-63
2023/10/19 11:22:28;;;;;;;7.43;2.33;;;;;;;15.37;71.61;99065.44;5077288;28;20044;-63
2023/10/19 11:25:20;;;;;;;7.05;2.15;;;;;;;15.38;71.69;99069.75;5083856;28;20075;-63
2023/10/19 11:27:48;;;;;;;6.18;1.77;;;;;;;15.38;71.86;99069.75;5082044;28;20045;-63
2023/10/19 11:30:25;;;;;;;5.95;1.80;;;;;;;15.39;71.93;99073.25;5080263;28;20071;-62
2023/10/19 11:32:56;;;;;;;;;;;;;;;15.40;71.78;99061.34;5082142;28;20052;-63
2023/10/19 11:35:25;;;;;;;6.63;1.88;;;;;;;15.40;71.90;99062.16;5082788;28;19928;-62
2023/10/19 11:37:55;;;;;;;9.07;1.83;;;;;;;15.41;71.94;99061.03;5080791;28;20145;-62
2023/10/19 11:40:25;;;;;;;5.35;1.67;;;;;;;15.43;71.89;99052.63;5079067;28;20036;-62
2023/10/19 11:42:56;;;;;;;5.32;1.80;;;;;;;15.41;71.82;99044.00;5081570;28;20429;-62
2023/10/19 11:45:24;;;;;;;6.18;1.63;;;;;;;15.44;72.08;99043.41;5076425;28;20129;-62
2023/10/19 11:47:53;;;;;;;4.18;1.73;;;;;;;15.48;72.55;99056.03;5067019;28;20052;-62
2023/10/19 11:50:21;;;;;;;9.75;2.55;;;;;;;15.51;72.35;99051.94;5074850;28;20045;-62
2023/10/19 11:52:49;;;;;;;10.85;2.08;;;;;;;15.51;72.22;99041.91;5078944;28;20063;-62
2023/10/19 11:55:17;;;;;;;7.32;1.92;;;;;;;15.50;72.33;99047.63;5077559;28;20588;-62